sensor_id;sensor_type;location;lat;lon;timestamp;P1;durP1;ratioP1;P2;durP2;ratioP2
72926;SDS011;61071;51.618;19.388;2022-07-23T00:00:03;21.23;;;12.95;;
72926;SDS011;61071;51.618;19.388;2022-07-23T00:02:30;16.92;;;11.65;;
72926;SDS011;61071;51.618;19.388;2022-07-23T00:04:56;22.17;;;12.68;;
72926;SDS011;61071;51.618;19.388;2022-07-23T00:07:22;22.08;;;12.55;;
72926;SDS011;61071;51.618;19.388;2022-07-23T00:09:48;19.25;;;12.25;;
72926;SDS011;61071;51.618;19.388;2022-07-23T00:12:13;16.83;;;11.38;;
72926;SDS011;61071;51.618;19.388;2022-07-23T00:14:39;20.23;;;12.07;;
72926;SDS011;61071;51.618;19.388;2022-07-23T00:17:05;16.38;;;11.20;;
72926;SDS011;61071;51.618;19.388;2022-07-23T00:19:31;19.27;;;12.85;;
72926;SDS011;61071;51.618;19.388;2022-07-23T00:21:57;18.75;;;12.52;;
72926;SDS011;61071;51.618;19.388;2022-07-23T00:24:24;21.35;;;13.07;;
72926;SDS011;61071;51.618;19.388;2022-07-23T00:26:49;14.25;;;12.35;;
72926;SDS011;61071;51.618;19.388;2022-07-23T00:29:15;18.10;;;13.35;;
72926;SDS011;61071;51.618;19.388;2022-07-23T00:31:41;20.23;;;12.85;;
72926;SDS011;61071;51.618;19.388;2022-07-23T00:34:07;17.65;;;12.77;;
72926;SDS011;61071;51.618;19.388;2022-07-23T00:36:32;16.38;;;13.15;;
72926;SDS011;61071;51.618;19.388;2022-07-23T00:38:58;16.67;;;13.05;;
72926;SDS011;61071;51.618;19.388;2022-07-23T00:41:24;18.67;;;13.32;;
72926;SDS011;61071;51.618;19.388;2022-07-23T00:43:50;16.58;;;12.93;;
72926;SDS011;61071;51.618;19.388;2022-07-23T00:46:22;18.52;;;13.68;;
72926;SDS011;61071;51.618;19.388;2022-07-23T00:48:50;19.77;;;13.70;;
72926;SDS011;61071;51.618;19.388;2022-07-23T00:51:16;18.13;;;13.20;;
72926;SDS011;61071;51.618;19.388;2022-07-23T00:53:43;17.33;;;13.80;;
72926;SDS011;61071;51.618;19.388;2022-07-23T00:56:10;16.23;;;13.35;;
72926;SDS011;61071;51.618;19.388;2022-07-23T00:58:37;18.05;;;12.65;;
72926;SDS011;61071;51.618;19.388;2022-07-23T01:01:07;23.23;;;12.95;;
72926;SDS011;61071;51.618;19.388;2022-07-23T01:03:34;17.00;;;12.50;;
72926;SDS011;61071;51.618;19.388;2022-07-23T01:06:00;16.85;;;12.05;;
72926;SDS011;61071;51.618;19.388;2022-07-23T01:08:26;20.08;;;13.18;;
72926;SDS011;61071;51.618;19.388;2022-07-23T01:10:54;15.85;;;13.27;;
72926;SDS011;61071;51.618;19.388;2022-07-23T01:13:20;15.88;;;13.07;;
72926;SDS011;61071;51.618;19.388;2022-07-23T01:15:45;17.58;;;12.85;;
72926;SDS011;61071;51.618;19.388;2022-07-23T01:18:11;18.25;;;13.23;;
72926;SDS011;61071;51.618;19.388;2022-07-23T01:20:37;18.08;;;12.68;;
72926;SDS011;61071;51.618;19.388;2022-07-23T01:23:03;18.17;;;12.23;;
72926;SDS011;61071;51.618;19.388;2022-07-23T01:25:29;20.33;;;12.77;;
72926;SDS011;61071;51.618;19.388;2022-07-23T01:27:55;17.50;;;13.68;;
72926;SDS011;61071;51.618;19.388;2022-07-23T01:30:21;17.73;;;12.65;;
72926;SDS011;61071;51.618;19.388;2022-07-23T01:32:47;17.17;;;13.35;;
72926;SDS011;61071;51.618;19.388;2022-07-23T01:35:13;15.52;;;13.02;;
72926;SDS011;61071;51.618;19.388;2022-07-23T01:37:39;21.85;;;13.63;;
72926;SDS011;61071;51.618;19.388;2022-07-23T01:40:05;19.27;;;13.45;;
72926;SDS011;61071;51.618;19.388;2022-07-23T01:42:32;19.55;;;13.15;;
72926;SDS011;61071;51.618;19.388;2022-07-23T01:44:57;20.75;;;13.40;;
72926;SDS011;61071;51.618;19.388;2022-07-23T01:47:23;18.05;;;12.73;;
72926;SDS011;61071;51.618;19.388;2022-07-23T01:49:49;17.35;;;13.30;;
72926;SDS011;61071;51.618;19.388;2022-07-23T01:52:15;17.45;;;12.80;;
72926;SDS011;61071;51.618;19.388;2022-07-23T01:54:41;17.42;;;13.80;;
72926;SDS011;61071;51.618;19.388;2022-07-23T01:57:07;17.95;;;12.90;;
72926;SDS011;61071;51.618;19.388;2022-07-23T01:59:34;16.88;;;13.27;;
72926;SDS011;61071;51.618;19.388;2022-07-23T02:02:01;15.00;;;13.30;;
72926;SDS011;61071;51.618;19.388;2022-07-23T02:04:28;17.85;;;13.75;;
72926;SDS011;61071;51.618;19.388;2022-07-23T02:06:54;18.08;;;13.90;;
72926;SDS011;61071;51.618;19.388;2022-07-23T02:09:20;19.50;;;13.73;;
72926;SDS011;61071;51.618;19.388;2022-07-23T02:11:46;17.45;;;13.18;;
72926;SDS011;61071;51.618;19.388;2022-07-23T02:14:12;16.83;;;13.70;;
72926;SDS011;61071;51.618;19.388;2022-07-23T02:16:38;15.70;;;13.07;;
72926;SDS011;61071;51.618;19.388;2022-07-23T02:19:04;22.42;;;14.90;;
72926;SDS011;61071;51.618;19.388;2022-07-23T02:21:30;24.90;;;14.80;;
72926;SDS011;61071;51.618;19.388;2022-07-23T02:23:59;23.10;;;15.02;;
72926;SDS011;61071;51.618;19.388;2022-07-23T02:26:27;18.10;;;14.95;;
72926;SDS011;61071;51.618;19.388;2022-07-23T02:28:53;18.85;;;14.63;;
72926;SDS011;61071;51.618;19.388;2022-07-23T02:31:19;22.67;;;15.35;;
72926;SDS011;61071;51.618;19.388;2022-07-23T02:33:48;24.27;;;16.35;;
72926;SDS011;61071;51.618;19.388;2022-07-23T02:36:14;22.90;;;14.38;;
72926;SDS011;61071;51.618;19.388;2022-07-23T02:38:40;22.35;;;14.85;;
72926;SDS011;61071;51.618;19.388;2022-07-23T02:41:05;19.95;;;14.90;;
72926;SDS011;61071;51.618;19.388;2022-07-23T02:43:31;19.10;;;14.88;;
72926;SDS011;61071;51.618;19.388;2022-07-23T02:45:57;22.67;;;16.05;;
72926;SDS011;61071;51.618;19.388;2022-07-23T02:48:22;21.67;;;15.77;;
72926;SDS011;61071;51.618;19.388;2022-07-23T02:50:48;18.05;;;14.50;;
72926;SDS011;61071;51.618;19.388;2022-07-23T02:53:14;23.60;;;16.60;;
72926;SDS011;61071;51.618;19.388;2022-07-23T02:55:40;21.02;;;16.40;;
72926;SDS011;61071;51.618;19.388;2022-07-23T02:58:05;22.48;;;16.30;;
72926;SDS011;61071;51.618;19.388;2022-07-23T03:00:31;26.00;;;17.75;;
72926;SDS011;61071;51.618;19.388;2022-07-23T03:02:57;21.13;;;17.42;;
72926;SDS011;61071;51.618;19.388;2022-07-23T03:05:22;20.60;;;17.48;;
72926;SDS011;61071;51.618;19.388;2022-07-23T03:07:48;22.23;;;16.52;;
72926;SDS011;61071;51.618;19.388;2022-07-23T03:10:14;21.83;;;17.20;;
72926;SDS011;61071;51.618;19.388;2022-07-23T03:12:40;21.75;;;17.58;;
72926;SDS011;61071;51.618;19.388;2022-07-23T03:15:05;20.00;;;17.80;;
72926;SDS011;61071;51.618;19.388;2022-07-23T03:17:32;23.88;;;18.02;;
72926;SDS011;61071;51.618;19.388;2022-07-23T03:19:58;19.25;;;15.85;;
72926;SDS011;61071;51.618;19.388;2022-07-23T03:22:24;25.90;;;18.25;;
72926;SDS011;61071;51.618;19.388;2022-07-23T03:24:49;30.23;;;17.27;;
72926;SDS011;61071;51.618;19.388;2022-07-23T03:29:51;22.55;;;16.52;;
72926;SDS011;61071;51.618;19.388;2022-07-23T03:32:19;23.20;;;15.90;;
72926;SDS011;61071;51.618;19.388;2022-07-23T03:34:46;22.58;;;15.80;;
72926;SDS011;61071;51.618;19.388;2022-07-23T03:37:13;24.67;;;14.95;;
72926;SDS011;61071;51.618;19.388;2022-07-23T03:39:39;23.15;;;16.00;;
72926;SDS011;61071;51.618;19.388;2022-07-23T03:42:05;21.08;;;14.85;;
72926;SDS011;61071;51.618;19.388;2022-07-23T03:44:31;24.02;;;15.57;;
72926;SDS011;61071;51.618;19.388;2022-07-23T03:46:57;21.65;;;14.57;;
72926;SDS011;61071;51.618;19.388;2022-07-23T03:49:22;17.98;;;13.18;;
72926;SDS011;61071;51.618;19.388;2022-07-23T03:51:48;18.20;;;14.07;;
72926;SDS011;61071;51.618;19.388;2022-07-23T03:54:14;21.73;;;14.02;;
72926;SDS011;61071;51.618;19.388;2022-07-23T03:56:40;21.77;;;13.20;;
72926;SDS011;61071;51.618;19.388;2022-07-23T03:59:06;24.02;;;13.27;;
72926;SDS011;61071;51.618;19.388;2022-07-23T04:05:11;23.50;;;13.80;;
72926;SDS011;61071;51.618;19.388;2022-07-23T04:07:37;24.10;;;13.45;;
72926;SDS011;61071;51.618;19.388;2022-07-23T04:10:03;28.60;;;13.15;;
72926;SDS011;61071;51.618;19.388;2022-07-23T04:12:29;26.25;;;12.80;;
72926;SDS011;61071;51.618;19.388;2022-07-23T04:14:55;21.63;;;12.32;;
72926;SDS011;61071;51.618;19.388;2022-07-23T04:17:21;27.17;;;14.50;;
72926;SDS011;61071;51.618;19.388;2022-07-23T04:19:46;30.75;;;14.90;;
72926;SDS011;61071;51.618;19.388;2022-07-23T04:22:12;34.28;;;14.70;;
72926;SDS011;61071;51.618;19.388;2022-07-23T04:24:38;35.50;;;16.45;;
72926;SDS011;61071;51.618;19.388;2022-07-23T04:27:04;23.17;;;14.43;;
72926;SDS011;61071;51.618;19.388;2022-07-23T04:29:30;25.95;;;15.13;;
72926;SDS011;61071;51.618;19.388;2022-07-23T04:31:56;20.42;;;13.02;;
72926;SDS011;61071;51.618;19.388;2022-07-23T04:34:22;20.83;;;13.68;;
72926;SDS011;61071;51.618;19.388;2022-07-23T04:36:48;18.63;;;12.32;;
72926;SDS011;61071;51.618;19.388;2022-07-23T04:39:13;23.10;;;13.35;;
72926;SDS011;61071;51.618;19.388;2022-07-23T04:41:39;16.38;;;12.40;;
72926;SDS011;61071;51.618;19.388;2022-07-23T04:44:05;16.20;;;12.07;;
72926;SDS011;61071;51.618;19.388;2022-07-23T04:46:31;17.00;;;12.25;;
72926;SDS011;61071;51.618;19.388;2022-07-23T04:48:57;19.10;;;11.88;;
72926;SDS011;61071;51.618;19.388;2022-07-23T04:51:23;16.73;;;12.55;;
72926;SDS011;61071;51.618;19.388;2022-07-23T04:53:48;15.65;;;12.63;;
72926;SDS011;61071;51.618;19.388;2022-07-23T04:56:14;18.08;;;12.20;;
72926;SDS011;61071;51.618;19.388;2022-07-23T04:58:40;22.00;;;12.75;;
72926;SDS011;61071;51.618;19.388;2022-07-23T05:01:06;13.90;;;12.45;;
72926;SDS011;61071;51.618;19.388;2022-07-23T05:03:32;16.80;;;11.80;;
72926;SDS011;61071;51.618;19.388;2022-07-23T05:05:58;13.77;;;11.95;;
72926;SDS011;61071;51.618;19.388;2022-07-23T05:08:24;21.65;;;12.30;;
72926;SDS011;61071;51.618;19.388;2022-07-23T05:10:49;22.75;;;11.07;;
72926;SDS011;61071;51.618;19.388;2022-07-23T05:13:16;14.40;;;12.40;;
72926;SDS011;61071;51.618;19.388;2022-07-23T05:15:42;24.85;;;12.93;;
72926;SDS011;61071;51.618;19.388;2022-07-23T05:18:09;17.55;;;12.23;;
72926;SDS011;61071;51.618;19.388;2022-07-23T05:20:36;14.68;;;11.65;;
72926;SDS011;61071;51.618;19.388;2022-07-23T05:23:02;14.07;;;11.55;;
72926;SDS011;61071;51.618;19.388;2022-07-23T05:25:28;16.98;;;11.77;;
72926;SDS011;61071;51.618;19.388;2022-07-23T05:27:54;16.80;;;11.23;;
72926;SDS011;61071;51.618;19.388;2022-07-23T05:30:20;15.77;;;10.40;;
72926;SDS011;61071;51.618;19.388;2022-07-23T05:32:46;13.80;;;10.45;;
72926;SDS011;61071;51.618;19.388;2022-07-23T05:35:12;14.77;;;10.63;;
72926;SDS011;61071;51.618;19.388;2022-07-23T05:37:38;15.55;;;10.75;;
72926;SDS011;61071;51.618;19.388;2022-07-23T05:40:05;16.90;;;10.68;;
72926;SDS011;61071;51.618;19.388;2022-07-23T05:42:34;15.38;;;10.15;;
72926;SDS011;61071;51.618;19.388;2022-07-23T05:45:01;14.80;;;9.90;;
72926;SDS011;61071;51.618;19.388;2022-07-23T05:47:28;17.05;;;9.95;;
72926;SDS011;61071;51.618;19.388;2022-07-23T05:49:53;18.75;;;10.10;;
72926;SDS011;61071;51.618;19.388;2022-07-23T05:52:19;12.88;;;9.25;;
72926;SDS011;61071;51.618;19.388;2022-07-23T05:54:45;12.27;;;9.88;;
72926;SDS011;61071;51.618;19.388;2022-07-23T05:57:11;13.35;;;9.70;;
72926;SDS011;61071;51.618;19.388;2022-07-23T05:59:36;14.70;;;9.13;;
72926;SDS011;61071;51.618;19.388;2022-07-23T06:02:02;14.23;;;9.25;;
72926;SDS011;61071;51.618;19.388;2022-07-23T06:04:28;17.08;;;8.85;;
72926;SDS011;61071;51.618;19.388;2022-07-23T06:06:54;11.27;;;8.65;;
72926;SDS011;61071;51.618;19.388;2022-07-23T06:09:19;9.95;;;8.60;;
72926;SDS011;61071;51.618;19.388;2022-07-23T06:11:45;11.57;;;8.75;;
72926;SDS011;61071;51.618;19.388;2022-07-23T06:14:11;15.88;;;8.38;;
72926;SDS011;61071;51.618;19.388;2022-07-23T06:16:36;12.93;;;7.78;;
72926;SDS011;61071;51.618;19.388;2022-07-23T06:19:02;14.48;;;7.85;;
72926;SDS011;61071;51.618;19.388;2022-07-23T06:21:28;10.18;;;6.80;;
72926;SDS011;61071;51.618;19.388;2022-07-23T06:23:54;9.98;;;6.70;;
72926;SDS011;61071;51.618;19.388;2022-07-23T06:26:22;9.18;;;7.30;;
72926;SDS011;61071;51.618;19.388;2022-07-23T06:28:48;11.50;;;7.40;;
72926;SDS011;61071;51.618;19.388;2022-07-23T06:31:17;11.13;;;7.15;;
72926;SDS011;61071;51.618;19.388;2022-07-23T06:33:43;9.50;;;7.55;;
72926;SDS011;61071;51.618;19.388;2022-07-23T06:36:08;9.77;;;6.90;;
72926;SDS011;61071;51.618;19.388;2022-07-23T06:38:34;12.82;;;7.43;;
72926;SDS011;61071;51.618;19.388;2022-07-23T06:41:00;11.52;;;7.38;;
72926;SDS011;61071;51.618;19.388;2022-07-23T06:43:26;8.45;;;6.28;;
72926;SDS011;61071;51.618;19.388;2022-07-23T06:45:51;10.38;;;7.43;;
72926;SDS011;61071;51.618;19.388;2022-07-23T06:48:17;8.93;;;6.70;;
72926;SDS011;61071;51.618;19.388;2022-07-23T06:50:43;12.27;;;7.13;;
72926;SDS011;61071;51.618;19.388;2022-07-23T06:53:09;7.60;;;6.80;;
72926;SDS011;61071;51.618;19.388;2022-07-23T06:55:34;10.77;;;7.88;;
72926;SDS011;61071;51.618;19.388;2022-07-23T06:58:03;15.75;;;7.80;;
72926;SDS011;61071;51.618;19.388;2022-07-23T07:00:30;9.05;;;7.35;;
72926;SDS011;61071;51.618;19.388;2022-07-23T07:02:56;12.98;;;7.68;;
72926;SDS011;61071;51.618;19.388;2022-07-23T07:05:22;15.07;;;7.20;;
72926;SDS011;61071;51.618;19.388;2022-07-23T07:07:48;10.30;;;7.80;;
72926;SDS011;61071;51.618;19.388;2022-07-23T07:10:14;11.65;;;7.50;;
72926;SDS011;61071;51.618;19.388;2022-07-23T07:12:41;11.68;;;7.18;;
72926;SDS011;61071;51.618;19.388;2022-07-23T07:15:07;12.07;;;7.15;;
72926;SDS011;61071;51.618;19.388;2022-07-23T07:17:33;9.48;;;7.30;;
72926;SDS011;61071;51.618;19.388;2022-07-23T07:19:59;8.90;;;7.20;;
72926;SDS011;61071;51.618;19.388;2022-07-23T07:22:25;15.02;;;6.85;;
72926;SDS011;61071;51.618;19.388;2022-07-23T07:24:50;10.35;;;7.32;;
72926;SDS011;61071;51.618;19.388;2022-07-23T07:27:16;15.10;;;7.45;;
72926;SDS011;61071;51.618;19.388;2022-07-23T07:29:42;23.30;;;9.50;;
72926;SDS011;61071;51.618;19.388;2022-07-23T07:32:07;13.75;;;7.07;;
72926;SDS011;61071;51.618;19.388;2022-07-23T07:34:33;11.60;;;7.32;;
72926;SDS011;61071;51.618;19.388;2022-07-23T07:36:59;11.90;;;7.60;;
72926;SDS011;61071;51.618;19.388;2022-07-23T07:39:25;15.25;;;6.97;;
72926;SDS011;61071;51.618;19.388;2022-07-23T07:41:50;15.13;;;7.05;;
72926;SDS011;61071;51.618;19.388;2022-07-23T07:44:16;9.85;;;6.55;;
72926;SDS011;61071;51.618;19.388;2022-07-23T07:46:42;11.40;;;7.05;;
72926;SDS011;61071;51.618;19.388;2022-07-23T07:49:08;7.28;;;6.50;;
72926;SDS011;61071;51.618;19.388;2022-07-23T07:51:34;11.45;;;7.03;;
72926;SDS011;61071;51.618;19.388;2022-07-23T07:54:00;9.77;;;7.03;;
72926;SDS011;61071;51.618;19.388;2022-07-23T07:56:26;12.18;;;6.88;;
72926;SDS011;61071;51.618;19.388;2022-07-23T07:58:52;21.02;;;7.95;;
72926;SDS011;61071;51.618;19.388;2022-07-23T08:01:18;13.30;;;6.55;;
72926;SDS011;61071;51.618;19.388;2022-07-23T08:03:45;27.10;;;7.25;;
72926;SDS011;61071;51.618;19.388;2022-07-23T08:06:11;9.38;;;6.60;;
72926;SDS011;61071;51.618;19.388;2022-07-23T08:08:37;7.15;;;6.30;;
72926;SDS011;61071;51.618;19.388;2022-07-23T08:11:03;7.63;;;6.38;;
72926;SDS011;61071;51.618;19.388;2022-07-23T08:13:29;11.95;;;6.90;;
72926;SDS011;61071;51.618;19.388;2022-07-23T08:15:54;9.63;;;6.32;;
72926;SDS011;61071;51.618;19.388;2022-07-23T08:18:20;10.38;;;6.47;;
72926;SDS011;61071;51.618;19.388;2022-07-23T08:20:46;6.70;;;6.00;;
72926;SDS011;61071;51.618;19.388;2022-07-23T08:23:12;8.43;;;6.55;;
72926;SDS011;61071;51.618;19.388;2022-07-23T08:25:39;12.05;;;7.22;;
72926;SDS011;61071;51.618;19.388;2022-07-23T08:28:08;7.82;;;6.25;;
72926;SDS011;61071;51.618;19.388;2022-07-23T08:30:37;8.05;;;6.75;;
72926;SDS011;61071;51.618;19.388;2022-07-23T08:33:05;17.13;;;7.70;;
72926;SDS011;61071;51.618;19.388;2022-07-23T08:35:49;10.40;;;6.70;;
72926;SDS011;61071;51.618;19.388;2022-07-23T08:38:18;8.73;;;5.72;;
72926;SDS011;61071;51.618;19.388;2022-07-23T08:40:50;6.82;;;5.10;;
72926;SDS011;61071;51.618;19.388;2022-07-23T08:43:22;9.50;;;5.70;;
72926;SDS011;61071;51.618;19.388;2022-07-23T08:45:51;9.32;;;5.78;;
72926;SDS011;61071;51.618;19.388;2022-07-23T08:48:22;7.28;;;5.63;;
72926;SDS011;61071;51.618;19.388;2022-07-23T08:51:01;10.80;;;5.97;;
72926;SDS011;61071;51.618;19.388;2022-07-23T08:53:30;8.85;;;5.72;;
72926;SDS011;61071;51.618;19.388;2022-07-23T08:56:00;13.07;;;6.70;;
72926;SDS011;61071;51.618;19.388;2022-07-23T08:58:28;11.13;;;6.05;;
72926;SDS011;61071;51.618;19.388;2022-07-23T09:00:55;8.70;;;5.18;;
72926;SDS011;61071;51.618;19.388;2022-07-23T09:03:25;11.00;;;5.57;;
72926;SDS011;61071;51.618;19.388;2022-07-23T09:05:58;14.43;;;4.95;;
72926;SDS011;61071;51.618;19.388;2022-07-23T09:08:25;7.88;;;5.60;;
72926;SDS011;61071;51.618;19.388;2022-07-23T09:11:07;7.57;;;5.13;;
72926;SDS011;61071;51.618;19.388;2022-07-23T09:13:50;9.45;;;5.85;;
72926;SDS011;61071;51.618;19.388;2022-07-23T09:18:54;8.00;;;5.50;;
72926;SDS011;61071;51.618;19.388;2022-07-23T09:21:31;7.90;;;5.30;;
72926;SDS011;61071;51.618;19.388;2022-07-23T09:24:03;9.73;;;5.90;;
72926;SDS011;61071;51.618;19.388;2022-07-23T09:29:19;9.40;;;5.40;;
72926;SDS011;61071;51.618;19.388;2022-07-23T09:31:59;8.30;;;5.45;;
72926;SDS011;61071;51.618;19.388;2022-07-23T09:34:34;9.45;;;5.47;;
72926;SDS011;61071;51.618;19.388;2022-07-23T09:37:14;12.93;;;5.82;;
72926;SDS011;61071;51.618;19.388;2022-07-23T09:39:43;8.02;;;5.32;;
72926;SDS011;61071;51.618;19.388;2022-07-23T09:42:15;6.43;;;5.30;;
72926;SDS011;61071;51.618;19.388;2022-07-23T09:44:47;8.13;;;5.57;;
72926;SDS011;61071;51.618;19.388;2022-07-23T09:47:15;11.55;;;5.50;;
72926;SDS011;61071;51.618;19.388;2022-07-23T09:49:57;10.27;;;5.80;;
72926;SDS011;61071;51.618;19.388;2022-07-23T09:52:35;8.20;;;5.63;;
72926;SDS011;61071;51.618;19.388;2022-07-23T09:55:08;9.60;;;6.15;;
72926;SDS011;61071;51.618;19.388;2022-07-23T09:57:35;9.93;;;6.18;;
72926;SDS011;61071;51.618;19.388;2022-07-23T10:00:02;9.63;;;5.85;;
72926;SDS011;61071;51.618;19.388;2022-07-23T10:02:32;12.55;;;6.43;;
72926;SDS011;61071;51.618;19.388;2022-07-23T10:04:59;9.82;;;5.80;;
72926;SDS011;61071;51.618;19.388;2022-07-23T10:07:28;8.75;;;6.05;;
72926;SDS011;61071;51.618;19.388;2022-07-23T10:10:00;11.52;;;6.45;;
72926;SDS011;61071;51.618;19.388;2022-07-23T10:12:28;8.23;;;5.85;;
72926;SDS011;61071;51.618;19.388;2022-07-23T10:15:05;12.20;;;5.80;;
72926;SDS011;61071;51.618;19.388;2022-07-23T10:17:31;13.43;;;5.88;;
72926;SDS011;61071;51.618;19.388;2022-07-23T10:19:58;7.80;;;6.10;;
72926;SDS011;61071;51.618;19.388;2022-07-23T10:22:29;12.80;;;6.18;;
72926;SDS011;61071;51.618;19.388;2022-07-23T10:36:42;10.32;;;5.78;;
72926;SDS011;61071;51.618;19.388;2022-07-23T10:42:11;9.77;;;5.90;;
72926;SDS011;61071;51.618;19.388;2022-07-23T10:47:11;6.35;;;5.40;;
72926;SDS011;61071;51.618;19.388;2022-07-23T10:49:46;9.57;;;6.00;;
72926;SDS011;61071;51.618;19.388;2022-07-23T10:52:16;8.70;;;5.45;;
72926;SDS011;61071;51.618;19.388;2022-07-23T10:54:49;12.32;;;6.70;;
72926;SDS011;61071;51.618;19.388;2022-07-23T10:57:27;8.55;;;5.25;;
72926;SDS011;61071;51.618;19.388;2022-07-23T11:02:38;22.08;;;5.78;;
72926;SDS011;61071;51.618;19.388;2022-07-23T11:05:12;8.70;;;5.68;;
72926;SDS011;61071;51.618;19.388;2022-07-23T11:10:39;12.50;;;6.10;;
72926;SDS011;61071;51.618;19.388;2022-07-23T11:31:54;8.60;;;5.93;;
72926;SDS011;61071;51.618;19.388;2022-07-23T11:34:43;8.00;;;5.88;;
72926;SDS011;61071;51.618;19.388;2022-07-23T11:37:12;10.60;;;6.90;;
72926;SDS011;61071;51.618;19.388;2022-07-23T11:40:13;8.20;;;6.20;;
72926;SDS011;61071;51.618;19.388;2022-07-23T11:45:32;13.80;;;6.50;;
72926;SDS011;61071;51.618;19.388;2022-07-23T11:48:06;10.10;;;6.20;;
72926;SDS011;61071;51.618;19.388;2022-07-23T11:50:34;13.40;;;6.47;;
72926;SDS011;61071;51.618;19.388;2022-07-23T11:53:02;7.97;;;5.68;;
72926;SDS011;61071;51.618;19.388;2022-07-23T11:55:28;10.30;;;6.38;;
72926;SDS011;61071;51.618;19.388;2022-07-23T11:57:54;11.23;;;6.68;;
72926;SDS011;61071;51.618;19.388;2022-07-23T12:00:22;8.90;;;6.47;;
72926;SDS011;61071;51.618;19.388;2022-07-23T12:02:51;10.85;;;6.50;;
72926;SDS011;61071;51.618;19.388;2022-07-23T12:05:22;9.27;;;6.57;;
72926;SDS011;61071;51.618;19.388;2022-07-23T12:07:51;9.43;;;5.77;;
72926;SDS011;61071;51.618;19.388;2022-07-23T12:13:15;9.75;;;6.50;;
72926;SDS011;61071;51.618;19.388;2022-07-23T12:15:49;10.95;;;6.47;;
72926;SDS011;61071;51.618;19.388;2022-07-23T12:18:18;7.18;;;6.40;;
72926;SDS011;61071;51.618;19.388;2022-07-23T12:20:50;12.18;;;7.15;;
72926;SDS011;61071;51.618;19.388;2022-07-23T12:23:22;8.80;;;6.72;;
72926;SDS011;61071;51.618;19.388;2022-07-23T12:25:50;8.65;;;7.22;;
72926;SDS011;61071;51.618;19.388;2022-07-23T12:30:53;8.05;;;6.18;;
72926;SDS011;61071;51.618;19.388;2022-07-23T12:33:22;10.43;;;6.10;;
72926;SDS011;61071;51.618;19.388;2022-07-23T12:35:48;13.82;;;6.90;;
72926;SDS011;61071;51.618;19.388;2022-07-23T12:38:15;8.57;;;6.10;;
72926;SDS011;61071;51.618;19.388;2022-07-23T12:40:45;13.27;;;6.50;;
72926;SDS011;61071;51.618;19.388;2022-07-23T12:43:27;7.43;;;5.90;;
72926;SDS011;61071;51.618;19.388;2022-07-23T12:46:16;10.23;;;5.93;;
72926;SDS011;61071;51.618;19.388;2022-07-23T12:51:21;7.50;;;5.63;;
72926;SDS011;61071;51.618;19.388;2022-07-23T12:53:58;9.10;;;5.88;;
72926;SDS011;61071;51.618;19.388;2022-07-23T12:56:35;14.18;;;6.05;;
72926;SDS011;61071;51.618;19.388;2022-07-23T13:01:39;57.42;;;15.70;;
72926;SDS011;61071;51.618;19.388;2022-07-23T13:04:18;27.75;;;5.78;;
72926;SDS011;61071;51.618;19.388;2022-07-23T13:06:47;35.40;;;17.90;;
72926;SDS011;61071;51.618;19.388;2022-07-23T13:09:58;22.45;;;10.88;;
72926;SDS011;61071;51.618;19.388;2022-07-23T13:13:07;17.33;;;7.32;;
72926;SDS011;61071;51.618;19.388;2022-07-23T13:15:43;11.80;;;6.18;;
72926;SDS011;61071;51.618;19.388;2022-07-23T13:32:06;14.15;;;10.07;;
72926;SDS011;61071;51.618;19.388;2022-07-23T14:03:20;22.40;;;16.15;;
72926;SDS011;61071;51.618;19.388;2022-07-23T14:06:10;14.05;;;9.45;;
72926;SDS011;61071;51.618;19.388;2022-07-23T15:19:40;15.43;;;9.30;;
72926;SDS011;61071;51.618;19.388;2022-07-23T15:22:24;9.10;;;7.68;;
72926;SDS011;61071;51.618;19.388;2022-07-23T15:25:18;10.52;;;8.35;;
72926;SDS011;61071;51.618;19.388;2022-07-23T15:50:42;10.30;;;7.20;;
72926;SDS011;61071;51.618;19.388;2022-07-23T16:01:00;9.35;;;7.28;;
72926;SDS011;61071;51.618;19.388;2022-07-23T18:55:03;16.33;;;10.50;;
